x

8452944 - Conimicut Light, Ri (cptr1) Weather Station

11:30 - Mon 16th Jan 2017 All times are EST. -5 hours from GMT.

  • Wind
    7mph, 9mph gusts
  • Sea Temp 39°f
  • Ar Temp 36°f
  • Sea Pressure 1024.5mb
  • 8452944 - Conimicut Light, Ri
  • 8452944 - Conimicut Light, Ri

More Historic Weather Station data

Upgrade to MSW Pro to gain access to the past 30 days of data for over 8000 Wavebouys and Weather Stations around the globe.

Join Pro

Comparision Forecast

View Surf forecast
   
Seg 01/16 11:30 7 9 mph 1024.5mb 39f 36f
11:24 8 9 mph 1024.4mb 39f 36f
11:18 8 9 mph 1024.4mb 39f 36f
11:12 7 10 mph 1024.6mb 39f 36f
11:06 8 9 mph 1024.6mb 39f 36f
11:00 9 10 mph 1024.7mb 39f 36f
10:54 8 9 mph 1024.7mb 39f 36f
10:48 8 9 mph 1024.8mb 39f 35f
10:42 8 9 mph 1024.9mb 39f 35f
10:36 8 9 mph 1025mb 39f 35f
10:30 8 9 mph 1025mb 39f 35f
10:24 8 9 mph 1025mb 39f 35f
10:18 8 10 mph 1025mb 39f 35f
10:12 8 9 mph 1025.1mb 39f 35f
10:06 8 10 mph 1025.1mb 39f 35f
10:00 8 11 mph 1025.1mb 39f 35f
9:54 11 13 mph 1025.2mb 39f 35f
9:48 11 14 mph 1025.3mb 39f 35f
9:42 11 14 mph 1025.3mb 39f 35f
9:36 13 15 mph 1025.4mb 39f 35f
9:30 13 14 mph 1025.4mb 39f 35f
9:24 14 15 mph 1025.4mb 39f 35f
9:18 14 15 mph 1025.4mb 39f 35f
9:12 14 16 mph 1025.4mb 39f 35f
9:06 15 16 mph 1025.5mb 39f 35f
9:00 14 15 mph 1025.5mb 39f 35f
8:54 14 15 mph 1025.6mb 39f 35f
8:48 13 15 mph 1025.7mb 39f 35f
8:42 14
mph
1025.8mb 39f 35f
8:36 13 15 mph 1025.8mb 39f 35f
8:30 13 14 mph 1025.8mb 39f 35f
8:24 11 13 mph 1025.7mb 39f 35f
8:18 10 11 mph 1025.8mb 39f 35f
8:12 10 11 mph 1025.9mb 39f 35f
8:06 10 11 mph 1025.9mb 39f 35f
8:00 9 10 mph 1025.9mb 39f 35f
7:54 9 10 mph 1026mb 39f 35f
7:48 8 10 mph 1026mb 39f 35f
7:42 8 9 mph 1026mb 39f 35f
7:36 8 9 mph 1026mb 39f 35f
7:30 8 9 mph 1026mb 39f 35f
7:24 8 9 mph 1026.2mb 39f 35f
7:18 8 9 mph 1026.1mb 39f 35f
7:12 8 10 mph 1026.2mb 39f 35f
7:06 9 10 mph 1026.2mb 39f 35f
7:00 9 10 mph 1026.4mb 39f 35f
6:54 8 9 mph 1026.4mb 39f 35f
6:48 7 10 mph 1026.5mb 39f 35f
6:42 7 9 mph 1026.5mb 39f 35f
6:36 8 9 mph 1026.5mb 39f 35f
6:30 9 10 mph 1026.5mb 39f 35f
6:24 8 11 mph 1026.4mb 39f 35f
6:18 9 11 mph 1026.3mb 38f 35f
6:12 10 13 mph 1026.2mb 38f 35f
6:06 9 11 mph 1026.2mb 39f 35f
6:00 10 15 mph 1026.1mb 40f 35f
5:54 11 15 mph 1026.2mb 39f 35f
5:48 13 15 mph 1026.3mb 39f 35f
5:42 14 17 mph 1026.3mb 39f 36f
5:36 14 17 mph 1026.2mb 39f 36f
5:30 14 18 mph 1026.2mb 39f 36f
5:24 16 21 mph 1026.2mb 39f 36f
5:18 17 21 mph 1026.2mb 39f 36f
5:12 18 22 mph 1026.1mb 39f 36f
5:06 17 20 mph 1026.2mb 39f 37f
5:00 17 21 mph 1026.1mb 39f 37f
4:54 16 18 mph 1026.1mb 39f 37f
4:48 16 20 mph 1026mb 39f 38f
4:42 17 20 mph 1026mb 39f 38f
4:36 15 16 mph 1026.1mb 38f 38f
4:30 14 17 mph 1026.1mb 38f 38f
4:24 15 17 mph 1026.1mb 38f 38f
4:18 15 16 mph 1026mb 38f 38f
4:12 16 17 mph 1026.2mb 38f 38f
4:06 10 14 mph 1026.3mb 38f 39f
4:00 13 15 mph 1026.5mb 38f 40f
3:54 11 13 mph 1026.5mb 38f 41f
3:48 11 13 mph 1026.4mb 38f 41f
3:42 9 11 mph 1026.4mb 38f 41f
3:36 10 13 mph 1026.3mb 38f 41f
3:30 11 14 mph 1026.4mb 38f 41f
3:24 10 13 mph 1026.4mb 38f 41f
3:18 9 13 mph 1026.4mb 38f 41f
3:12 10 14 mph 1026.4mb 38f 41f
3:06 10 14 mph 1026.4mb 38f 41f
3:00 10 13 mph 1026.4mb 38f 41f
2:54 9 10 mph 1026.4mb 38f 41f
2:48 7 10 mph 1026.3mb 38f 41f
2:42 10 13 mph 1026.4mb 38f 41f
2:36 10 13 mph 1026.5mb 38f 41f
2:30 9 14 mph 1026.6mb 38f 41f
2:24 11 15 mph 1026.7mb 38f 40f
2:18 9 14 mph 1026.7mb 38f 40f
2:12 8 11 mph 1026.8mb 38f 40f
2:06 8 13 mph 1026.8mb 38f 40f
2:00 11 14 mph 1026.9mb 38f 40f
1:54 10 14 mph 1026.9mb 38f 40f
1:48 11 15 mph 1026.9mb 38f 39f
1:42 9 14 mph 1027mb 38f 40f
1:36 11 13 mph 1027.1mb 38f 40f
1:30 9 14 mph 1027.1mb 38f 39f
1:24 11 16 mph 1027.3mb 38f 38f
1:18 7 14 mph 1027.4mb 38f 39f
1:12 14 17 mph 1027.6mb 38f 38f
1:06 14 16 mph 1027.6mb 38f 38f
1:00 13 16 mph 1027.7mb 38f 38f
12:54 10 15 mph 1027.8mb 38f 38f
12:48 14 16 mph 1027.9mb 38f 38f
12:42 13 17 mph 1027.9mb 38f 38f
12:36 15 18 mph 1028.1mb 38f 37f
12:30 14 16 mph 1028.2mb 39f 37f
12:24 11 18 mph 1028.2mb 39f 37f
12:18 14 16 mph 1028.3mb 39f 37f
12:12 11 15 mph 1028.4mb 39f 37f
12:06 14 17 mph 1028.5mb 39f 37f
12:00 13 16 mph 1028.7mb 38f 37f
11:54 11 17 mph 1028.9mb 38f 37f
11:48 14 16 mph 1029mb 38f 37f
11:42 7 9 mph 1029mb 38f 36f
11:36 7 8 mph 1029mb 38f 34f
11:30 8 10 mph 1029.1mb 39f 33f
11:24 7 9 mph 1029.3mb 38f 33f
11:18 6
mph
1029.4mb 38f 33f
11:12 3 5 mph 1029.5mb 38f 33f
11:06 5 6 mph 1029.7mb 38f 32f
11:00 6 8 mph 1029.8mb 38f 32f
10:54 7 8 mph 1029.8mb 38f 32f
10:48 7 8 mph 1029.9mb 38f 32f
10:42 7 8 mph 1030.1mb 38f 32f
10:36 6 7 mph 1030.2mb 38f 32f
10:30 2 6 mph 1030.2mb 38f 32f
10:24 3 5 mph 1030.4mb 38f 31f
10:18 3 5 mph 1030.5mb 38f 31f
10:12 3 5 mph 1030.5mb 38f 31f
10:06 2 3 mph 1030.6mb 38f 31f
10:00 2 3 mph 1030.7mb 38f 30f
9:54 1 2 mph 1030.7mb 38f 33f
9:48 1 2 mph 1030.7mb 38f 34f
9:42  -  1 mph 1030.8mb 38f 34f
9:36 1 2 mph 1030.9mb 38f 32f
9:30 2 3 mph 1030.8mb 38f 30f
9:24 1 2 mph 1030.7mb 38f 30f
9:18  -  1 mph 1030.6mb 38f 33f
9:12  -  1 mph 1030.7mb 38f 31f
9:06  -  2 mph 1030.5mb 38f 29f
9:00 1 2 mph 1030.4mb 38f 30f
8:54 1 2 mph 1030.4mb 38f 29f
8:48 1 2 mph 1030.4mb 38f 28f
8:42  -  1 mph 1030.5mb 38f 27f
8:36  -  1 mph 1030.6mb 38f 27f
8:30 1 2 mph 1030.6mb 39f 25f
8:24 2
mph
1030.5mb 39f 24f
8:18 2 3 mph 1030.7mb 39f 24f
8:12 3 5 mph 1030.7mb 39f 24f
8:06 3
mph
1030.7mb 39f 23f
8:00 3 5 mph 1030.8mb 39f 23f
7:48 3 5 mph 1030.7mb 39f 23f
7:42 2 5 mph 1030.6mb 39f 23f
7:36 3 5 mph 1030.7mb 39f 23f
7:30 2 3 mph 1030.4mb 39f 23f
7:24 2 3 mph 1030.4mb 38f 23f
7:18 2 5 mph 1030.5mb 38f 23f
7:12 5 6 mph 1030.5mb 38f 23f
7:06 5 6 mph 1030.7mb 38f 23f
7:00 3 5 mph 1030.6mb 38f 24f
6:54 3 5 mph 1030.6mb 38f 24f
6:48 3 5 mph 1030.5mb 38f 24f
6:42 3 5 mph 1030.5mb 38f 24f
6:36 3 6 mph 1030.6mb 38f 24f
6:30 5 6 mph 1030.5mb 38f 24f
6:24 5
mph
1030.5mb 38f 24f
6:18 3
mph
1030.5mb 38f 24f
6:12 2 3 mph 1030.5mb 38f 24f
6:06 2 3 mph 1030.4mb 38f 24f
6:00 2 3 mph 1030.4mb 38f 24f
5:54 3
mph
1030.3mb 38f 25f
5:48 2 3 mph 1030.4mb 38f 25f
5:42 3 5 mph 1030.4mb 38f 24f
5:36 2 3 mph 1030.4mb 38f 25f
5:30 2
mph
1030.4mb 38f 25f
5:24 2 5 mph 1030.4mb 38f 25f
5:18 3 5 mph 1030.4mb 38f 24f
5:12 3 5 mph 1030.4mb 38f 24f
5:06 3 5 mph 1030.4mb 38f 24f
5:00 2 3 mph 1030.5mb 38f 25f
4:54 3
mph
1030.4mb 38f 26f
4:48 2 5 mph 1030.4mb 37f 25f
4:42 2 3 mph 1030.5mb 37f 25f
4:36 3 5 mph 1030.4mb 37f 26f
4:30 3 5 mph 1030.5mb 37f 26f
4:24 3 5 mph 1030.4mb 37f 26f
4:18 2 3 mph 1030.3mb 37f 26f
4:12 2 3 mph 1030.4mb 37f 26f
4:06 2 3 mph 1030.4mb 37f 26f
4:00 3 5 mph 1030.5mb 37f 26f
3:54 3 5 mph 1030.5mb 36f 26f
3:48 3 5 mph 1030.6mb 36f 26f
3:42 5 6 mph 1030.6mb 36f 26f
3:36 5 6 mph 1030.6mb 36f 26f
3:30 6
mph
1030.6mb 36f 26f
3:24 5 6 mph 1030.7mb 36f 26f
3:18 5 6 mph 1030.7mb 36f 27f
3:12 6
mph
1030.7mb 36f 27f
3:06 3 5 mph 1030.7mb 36f 27f
3:00 3 5 mph 1030.6mb 36f 27f
2:54 2 3 mph 1030.5mb 36f 27f
2:48 2 3 mph 1030.5mb 36f 27f
2:42 2 5 mph 1030.4mb 36f 27f
2:36 5
mph
1030.4mb 36f 27f
2:30 5 6 mph 1030.5mb 36f 27f
2:24 6
mph
1030.5mb 36f 28f
2:18 5 6 mph 1030.5mb 37f 28f
2:12 5 6 mph 1030.5mb 37f 28f
2:06 6 7 mph 1030.6mb 37f 28f
2:00 6 8 mph 1030.5mb 37f 28f
1:54 8
mph
1030.4mb 37f 28f
1:48 7 8 mph 1030.4mb - -
1:42 7
mph
1030.3mb - -
1:36 6 8 mph 1030.2mb - -
1:30 7 8 mph 1030.1mb 37f 28f
1:24 6
mph
1030.1mb 37f 28f
1:18 6
mph
1030mb 37f 28f
1:12 5 6 mph 1029.9mb 37f 28f
1:06 6
mph
1029.9mb 37f 28f
1:00 6 7 mph 1029.9mb 37f 28f
12:54 5 6 mph 1029.8mb 37f 28f
12:48 6 7 mph 1029.8mb 37f 29f
12:42 6 7 mph 1029.7mb 37f 29f
12:36 6
mph
1029.7mb 37f 29f
12:30 5 6 mph 1029.6mb 37f 29f
12:24 5 6 mph 1029.5mb 37f 28f
12:18 6 7 mph 1029.4mb 37f 29f
12:12 5 6 mph 1029.3mb 38f 29f
12:06 6
mph
1029.3mb 38f 29f
12:00 6
mph
1029.2mb 38f 29f
Dom 01/15 11:54 6 7 mph 1029.2mb 38f 29f
11:48 6
mph
1029.2mb 38f 29f
11:42 6
mph
1029.1mb 38f 29f
11:36 5 6 mph 1029.1mb 38f 30f
11:30 5 6 mph 1029.3mb 38f 29f
11:24 5 6 mph 1029.4mb 38f 29f
11:18 6 7 mph 1029.6mb 39f 30f
11:12 6 7 mph 1029.6mb 39f 30f
11:06 6
mph
1029.6mb 39f 30f
11:00 6 7 mph 1029.4mb 39f 30f
10:54 5
mph
1029.4mb 39f 30f
10:48 3 5 mph 1029.3mb 39f 30f
10:42 3 5 mph 1029.3mb 39f 30f
10:36 3 5 mph 1029.4mb 39f 30f
10:30 5
mph
1029.4mb 39f 30f
10:24 2 3 mph 1029.3mb 39f 30f
10:18 3 5 mph 1029.3mb 39f 31f
10:12 2 5 mph 1029.2mb 39f 31f
10:06 3 5 mph 1029.2mb 39f 31f
10:00 1 2 mph 1029.1mb 39f 31f
9:54 1 2 mph 1029.2mb 39f 31f
9:48 1 2 mph 1029.2mb 39f 32f
9:42 2 3 mph 1029.3mb 39f 32f
9:36 2 3 mph 1029.2mb 39f 32f
9:30 3
mph
1029.2mb 39f 32f
9:24 3 5 mph 1029.2mb 39f 32f
9:18 2
mph
1029.1mb 39f 32f
9:12 2 3 mph 1029.1mb 39f 32f
9:06 3 5 mph 1029.2mb 39f 32f
9:00 5
mph
1029.1mb 39f 33f
8:54 5 7 mph 1029mb 39f 32f
8:48 6
mph
1028.7mb 39f 33f
8:42 5 6 mph 1028.7mb 39f 33f
8:36 5 6 mph 1028.5mb 39f 33f
8:30 5 6 mph 1028.5mb 39f 33f
8:24 5 6 mph 1028.4mb 39f 33f
8:18 5 6 mph 1028.3mb 39f 33f
8:12 6
mph
1028.4mb 39f 33f
8:06 6
mph
1028.5mb 39f 33f
8:00 6
mph
1028.5mb 39f 33f
7:54 6
mph
1028.5mb 39f 33f
7:48 6
mph
1028.3mb 39f 33f
7:42 6 7 mph 1028.2mb 39f 34f
7:36 6 7 mph 1028mb 39f 34f
7:30 6 7 mph 1028mb 38f 34f
7:24 6 7 mph 1027.9mb 38f 34f
7:18 5 6 mph 1027.9mb 38f 34f
7:12 6 7 mph 1027.9mb 38f 34f
7:06 3 5 mph 1028mb 38f 35f
7:00 2
mph
1028mb 38f 35f
6:54 1
mph
1027.9mb 38f 35f
6:48  -  2 mph 1027.7mb 38f 35f
6:42 2 3 mph 1027.7mb 38f 35f
6:36 1 3 mph 1027.6mb 38f 35f
6:30 2 3 mph 1027.6mb 38f 35f
6:24 2 5 mph 1027.6mb 38f 35f
6:18 2 3 mph 1027.5mb 38f 34f
6:12 3 5 mph 1027.5mb 38f 35f
6:06 5
mph
1027.5mb 38f 35f
6:00 5
mph
1027.4mb 38f 35f
5:54 5 6 mph 1027.3mb 38f 35f
5:48 6 7 mph 1027.1mb 38f 35f
5:42 6
mph
1027mb 38f 35f
5:36 6 7 mph 1027mb 38f 36f
5:30 7
mph
1026.9mb 38f 36f
5:24 6
mph
1026.8mb 38f 36f
5:18 6
mph
1026.8mb 38f 36f
5:12 6 7 mph 1026.8mb 38f 37f
5:06 6 7 mph 1026.7mb 38f 37f
5:00 7 8 mph 1026.6mb 38f 37f
4:54 8 9 mph 1026.5mb 38f 37f
4:48 5 7 mph 1026.4mb 38f 37f
4:42 6 7 mph 1026.4mb 38f 37f
4:36 7 8 mph 1026.3mb 38f 37f
4:30 7 9 mph 1026.3mb 38f 37f
4:24 8 10 mph 1026.2mb 38f 37f
4:18 8 9 mph 1026.1mb 38f 38f
4:12 6 8 mph 1026mb 38f 40f
4:06 9 11 mph 1025.9mb 38f 40f
4:00 10 11 mph 1025.8mb 38f 40f
3:54 10 14 mph 1025.7mb 38f 40f
3:48 10 11 mph 1025.6mb 38f 40f
3:42 10
mph
1025.7mb 38f 40f
3:36 9 13 mph 1025.7mb 38f 39f
3:30 11 13 mph 1025.7mb 38f 40f
3:24 11 14 mph 1025.5mb 38f 40f
3:18 13 14 mph 1025.5mb 38f 40f
3:12 11 15 mph 1025.4mb 38f 40f
3:06 11 14 mph 1025.4mb 38f 40f
3:00 13 14 mph 1025.4mb 38f 40f
2:54 10 13 mph 1025.4mb 38f 40f
2:48 8 13 mph 1025.3mb 38f 41f
2:42 10 11 mph 1025.3mb 38f 40f
2:36 9 11 mph 1025.2mb 38f 40f
2:30 10 14 mph 1025.1mb 38f 40f
2:24 10 14 mph 1025mb 38f 40f
2:18 9 13 mph 1025mb 38f 40f
2:12 9 13 mph 1024.9mb 38f 40f
2:06 10 14 mph 1024.9mb 38f 39f
2:00 8 10 mph 1024.9mb 38f 39f
1:54 6 9 mph 1024.8mb 38f 37f
1:48 7 14 mph 1024.7mb 38f 37f
1:42 11 14 mph 1024.7mb 38f 39f
1:36 11 14 mph 1024.7mb 38f 39f
1:30 10 13 mph 1024.7mb 38f 39f
1:24 13 15 mph 1024.7mb 38f 38f
1:18 9 11 mph 1024.7mb 38f 37f
1:12 7 8 mph 1024.8mb 38f 38f
1:06 9 11 mph 1024.8mb 38f 38f
1:00 9 15 mph 1024.8mb 38f 37f
12:54 13 15 mph 1024.8mb 38f 37f
12:48 11 15 mph 1024.8mb 38f 37f
12:42 11 16 mph 1024.9mb 38f 36f
12:36 14 17 mph 1024.9mb 38f 37f
12:30 14 16 mph 1024.9mb 38f 36f
12:24 7 13 mph 1025.1mb 38f 38f
12:18 11 14 mph 1025.1mb 38f 37f
12:12 10 14 mph 1025.2mb 38f 37f
12:06 11 14 mph 1025.3mb 38f 36f
12:00 11 15 mph 1025.3mb 38f 36f
11:54 13 15 mph 1025.3mb 38f 36f
11:48 13 15 mph 1025.3mb 38f 36f
11:42 11 16 mph 1025.5mb 38f 36f
11:36 13 14 mph 1025.5mb 38f 35f
11:30 11 16 mph 1025.5mb 38f 35f
11:24 16 17 mph 1025.5mb 38f 35f
11:18 14 17 mph 1025.6mb 38f 35f
11:12 14 17 mph 1025.7mb 37f 34f
11:06 15 18 mph 1025.7mb 37f 34f
11:00 16 18 mph 1025.7mb 37f 34f
10:54 14 16 mph 1025.8mb 37f 33f
10:48 13 17 mph 1025.8mb 37f 34f
10:42 15 17 mph 1025.9mb 37f 34f
10:36 15 20 mph 1026mb 37f 34f
10:30 17 20 mph 1026mb 38f 33f
10:24 16 22 mph 1026mb 38f 33f
10:18 17 20 mph 1026.1mb 38f 33f
10:12 15 22 mph 1026.1mb 38f 33f
10:06 16 22 mph 1026.1mb 38f 33f
10:00 20 23 mph 1026.1mb 38f 33f
9:54 18 22 mph 1026.1mb 38f 33f
9:48 20 23 mph 1026.2mb 38f 32f
9:42 21 23 mph 1026.1mb 38f 33f
9:36 20 23 mph 1026.1mb 38f 33f
9:30 18 22 mph 1026.1mb 38f 32f
9:24 16 18 mph 1026.1mb 38f 32f
9:18 17 20 mph 1026mb 39f 31f
9:12 18 21 mph 1026mb 38f 31f
9:06 14 16 mph 1026mb 38f 30f
9:00 14 16 mph 1026mb 38f 30f
8:54 14 18 mph 1026.1mb 38f 30f
8:48 15 17 mph 1026mb 38f 30f
8:42 14 17 mph 1025.8mb 38f 30f
8:36 15 18 mph 1025.7mb 38f 30f
8:30 16 18 mph 1025.6mb 38f 29f
8:24 17 18 mph 1025.4mb 38f 29f
8:18 16 20 mph 1025.4mb 38f 29f
8:12 14 16 mph 1025.3mb 38f 29f
8:06 10 13 mph 1025.4mb 38f 29f
8:00 9 10 mph 1025.3mb 38f 29f
7:54 8 10 mph 1025.2mb 38f 29f
7:48 8 10 mph 1025.1mb 38f 29f
7:42 9 10 mph 1025mb 38f 29f
7:36 8 10 mph 1024.8mb 38f 29f
7:30 8 10 mph 1024.8mb 38f 29f
7:24 9 10 mph 1024.6mb 38f 29f
7:18 8 10 mph 1024.6mb 38f 29f
7:12 8 10 mph 1024.5mb 38f 29f
7:06 9 11 mph 1024.4mb 38f 29f
7:00 9 13 mph 1024.3mb 38f 29f
6:54 9 11 mph 1024.3mb 38f 30f
6:48 8 9 mph 1024.3mb 38f 29f
6:42 9 11 mph 1024.2mb 38f 30f
6:36 10 11 mph 1024.2mb 38f 30f
6:30 8 11 mph 1024mb 38f 30f
6:24 8 10 mph 1023.9mb 38f 30f
6:18 9 13 mph 1023.9mb 38f 30f
6:12 13 14 mph 1023.9mb 38f 30f
6:06 13 14 mph 1023.6mb 38f 30f
6:00 11 14 mph 1023.6mb 38f 30f
5:54 11 13 mph 1023.5mb 38f 30f
5:48 10 11 mph 1023.4mb 38f 30f
5:42 9 10 mph 1023.3mb 38f 30f
5:36 9 10 mph 1023.3mb 38f 30f
5:30 9 11 mph 1023.4mb 38f 30f
5:24 8 11 mph 1023.4mb 38f 30f
5:18 9 10 mph 1023.3mb 37f 30f
5:12 9 11 mph 1023.3mb 38f 30f
5:06 9 10 mph 1023.3mb 38f 30f
5:00 8 9 mph 1023.3mb 38f 30f
4:54 8 10 mph 1023.3mb 38f 30f
4:48 8 11 mph 1023.2mb 38f 30f
4:42 9 10 mph 1023.3mb 38f 30f
4:36 9 10 mph 1023.3mb 37f 30f
4:30 10 13 mph 1023.3mb 37f 30f
4:24 9 10 mph 1023.3mb 37f 30f
4:18 10 11 mph 1023.3mb 37f 30f
4:12 9 10 mph 1023.4mb 37f 30f
4:06 8 10 mph 1023.4mb 37f 30f
4:00 9 11 mph 1023.4mb 37f 31f
3:54 9 10 mph 1023.5mb 37f 30f
3:48 9 10 mph 1023.5mb 37f 31f
3:42 9 11 mph 1023.5mb 37f 31f
3:36 9 11 mph 1023.6mb 37f 31f
3:30 13 14 mph 1023.6mb 37f 31f
3:24 11 13 mph 1023.7mb 37f 31f
3:18 10 13 mph 1023.7mb 37f 31f
3:12 8 14 mph 1023.8mb 37f 31f
3:06 11 14 mph 1023.8mb 37f 31f
3:00 13 14 mph 1023.8mb 37f 31f
2:54 11 15 mph 1023.9mb 37f 31f
2:48 14 15 mph 1024mb 37f 31f
2:42 13 15 mph 1023.9mb 37f 31f
2:36 13 14 mph 1023.9mb 37f 31f
2:30 11 14 mph 1023.8mb 37f 31f
2:24 11 18 mph 1023.9mb 37f 31f
2:18 13 15 mph 1024mb 37f 31f
2:12 11 14 mph 1024.2mb 37f 31f
2:06 11 15 mph 1024.1mb 37f 31f
2:00 9 13 mph 1024.2mb 37f 31f
1:54 9 15 mph 1024.2mb 37f 31f
1:48 9 11 mph 1024.2mb 37f -
1:42 7 9 mph 1024.2mb 37f -
1:36 7 9 mph 1024.2mb 37f -
1:30 7 9 mph 1024.3mb 37f 31f
1:24 7 9 mph 1024.3mb 37f 31f
1:18 7 8 mph 1024.3mb 37f 31f
1:12 6 9 mph 1024.3mb 37f 31f
1:06 6 8 mph 1024.3mb 37f 31f
1:00 6 7 mph 1024.4mb 37f 31f
12:54 6 7 mph 1024.4mb 37f 31f
12:48 3 6 mph 1024.4mb - -
12:42 5 6 mph 1024.5mb - -
12:36 5 7 mph 1024.6mb - -
12:30 6 8 mph 1024.7mb 37f 31f
12:24 6 8 mph 1024.8mb 37f 30f
12:18 7 9 mph 1024.9mb 37f 30f
12:12 6 8 mph 1025mb 37f 30f
12:06 6 8 mph 1025.2mb 38f 30f
12:00 6 7 mph 1025.3mb 38f 30f
Sáb 01/14 11:54 5 7 mph 1025.4mb 38f 30f
11:48 6 8 mph 1025.4mb 38f 30f
11:42 6 9 mph 1025.5mb 38f 30f
11:36 7 9 mph 1025.6mb 38f 30f
11:30 7 9 mph 1025.8mb 38f 30f
11:24 7 8 mph 1025.9mb 38f 30f
11:18 7 10 mph 1026.1mb 38f 30f
11:12 7 10 mph 1026.1mb 38f 30f
11:06 8 10 mph 1026.3mb 38f 30f
11:00 8 10 mph 1026.4mb 38f 30f
10:54 9 10 mph 1026.5mb 38f 30f
10:48 8 10 mph 1026.6mb 38f 30f
10:42 7 9 mph 1026.7mb 38f 30f
10:36 7 8 mph 1026.8mb 38f 29f
10:30 5 7 mph 1026.9mb 38f 29f
10:24 6 7 mph 1027.1mb 38f 29f
10:18 5 7 mph 1027.1mb 38f 29f
10:12 6 7 mph 1027.3mb 38f 29f
10:06 6 8 mph 1027.4mb 38f 29f
10:00 7 9 mph 1027.5mb 38f 29f
9:54 9 13 mph 1027.5mb 38f 29f
9:48 11 14 mph 1027.6mb 39f 29f
9:42 13 15 mph 1027.5mb 39f 29f
9:36 10 14 mph 1027.6mb 39f 29f
9:30 10 11 mph 1027.9mb 39f 29f
9:24 9 13 mph 1028mb 39f 29f
9:18 10 13 mph 1028mb 39f 29f
9:12 11 13 mph 1028.1mb 39f 29f
9:06 10 13 mph 1028.1mb 39f 29f
9:00 8 10 mph 1028.2mb 39f 29f
8:54 9 11 mph 1028.4mb 39f 29f
8:48 7 9 mph 1028.3mb 39f 29f
8:42 8 9 mph 1028.3mb 39f 29f
8:36 6 8 mph 1028.5mb 39f 29f
8:30 7 10 mph 1028.6mb 39f 29f
8:24 8 10 mph 1028.7mb 39f 29f
8:18 8 9 mph 1028.7mb 39f 29f
8:12 8 9 mph 1028.7mb 39f 29f
8:06 8 10 mph 1028.9mb 39f 29f
8:00 9 10 mph 1029.2mb 39f 29f
7:54 9 10 mph 1029.2mb 39f 29f
7:48 10 13 mph 1029.3mb 39f 29f
7:42 10 13 mph 1029.5mb 39f 29f
7:36 9 10 mph 1029.5mb 39f 29f
7:30 8 9 mph 1029.6mb 39f 29f
7:24 7 8 mph 1029.6mb 39f 29f
7:18 6 7 mph 1029.6mb 39f 29f
7:12 6 8 mph 1029.6mb 39f 29f
7:06 7 10 mph 1029.7mb 39f 29f
7:00 9 11 mph 1029.7mb 39f 29f
6:54 9 10 mph 1029.7mb 39f 29f
6:48 8 10 mph 1029.8mb 39f 29f
6:42 8 10 mph 1030mb 39f 29f
6:36 8 10 mph 1030.1mb 39f 29f
6:30 10 11 mph 1030.3mb 39f 28f
6:24 8 10 mph 1030.3mb 39f 28f
6:18 10 11 mph 1030.4mb 39f 28f
6:12 10 11 mph 1030.5mb 39f 28f
6:06 10 14 mph 1030.5mb 39f 28f
6:00 11 13 mph 1030.6mb 39f 28f
5:54 10 16 mph 1030.7mb 39f 28f
5:48 11 15 mph 1030.8mb 39f 28f
5:42 14 16 mph 1031mb 39f 29f
5:36 14 17 mph 1030.9mb 38f 29f
5:30 14 20 mph 1031mb 38f 29f
5:24 16 18 mph 1031.2mb 38f 29f
5:18 16 18 mph 1031.1mb 38f 29f
5:12 16 18 mph 1031.1mb 38f 29f
5:06 15 17 mph 1031.2mb 38f 29f
5:00 17 20 mph 1031.2mb 38f 29f
4:54 15 16 mph 1031.4mb 38f 29f
4:48 16 20 mph 1031.5mb 38f 29f
4:42 15 17 mph 1031.5mb 38f 30f
4:36 15 21 mph 1031.6mb 38f 29f
4:30 15 18 mph 1031.5mb 38f 30f
4:24 15 17 mph 1031.6mb 38f 29f
4:18 15 17 mph 1031.9mb 38f 30f
4:12 16 17 mph 1031.9mb 38f 30f
4:06 15 18 mph 1032mb 39f 30f
4:00 16 20 mph 1032.1mb 39f 30f
3:54 17 20 mph 1032.1mb 39f 30f
3:48 15 18 mph 1032.2mb 39f 29f
3:42 16 20 mph 1032.3mb 38f 29f
3:36 16 20 mph 1032.4mb 38f 29f
3:30 15 18 mph 1032.5mb 38f 29f
3:24 15 17 mph 1032.5mb 38f 29f
3:18 14 17 mph 1032.7mb 38f 29f
3:12 14 15 mph 1032.8mb 38f 29f
3:06 13 14 mph 1033mb 38f 29f
3:00 14 15 mph 1033.2mb 38f 29f
2:54 10 13 mph 1033.3mb 38f 28f
2:48 9 13 mph 1033.3mb 38f 28f
2:42 9 11 mph 1033.3mb 38f 28f
2:36 8 9 mph 1033.3mb 38f 28f
2:30 9 10 mph 1033.3mb 38f 28f
2:24 9 10 mph 1033.1mb 38f 28f
2:18 8 10 mph 1033.3mb 38f 28f
2:12 7 10 mph 1033.4mb 38f 27f
2:06 7 9 mph 1033.6mb 38f 27f
2:00 7 11 mph 1033.8mb 38f 27f
1:54 9 11 mph 1033.8mb 38f 27f
1:48 8 9 mph 1033.8mb 38f 27f
1:42 8 9 mph 1033.9mb 38f 27f
1:36 7 10 mph 1034.1mb 38f 27f
1:30 7 9 mph 1034.1mb 38f 27f
1:24 6 8 mph 1034.3mb 38f 27f
1:18 7 8 mph 1034.2mb 38f 27f
1:12 7 10 mph 1034.5mb 38f 27f
1:06 6 8 mph 1034.5mb 38f 27f
1:00 5 7 mph 1034.7mb 38f 27f
12:54 5 6 mph 1034.9mb 38f 27f
12:48 6 8 mph 1035mb 38f 27f
12:42 6 7 mph 1035.1mb 38f 27f
12:36 2 7 mph 1035.2mb 38f 27f
12:30 6 8 mph 1035.6mb 38f 26f
12:24 1 5 mph 1035.7mb 38f 28f
12:18 3 6 mph 1035.9mb 38f 27f
12:12  -  1 mph 1036mb 38f 30f
12:06  -  1 mph 1036.1mb 38f 28f
12:00  -  1 mph 1036.2mb 38f 29f
11:54  -  2 mph 1036.3mb 38f 29f
11:48 3 5 mph 1036.5mb 38f 30f
11:42 3 5 mph 1036.6mb 38f 28f
11:36 3
mph
1036.8mb 38f 28f
11:30 2 7 mph 1036.8mb 38f 28f
11:24 6
mph
1037.1mb 38f 25f
11:18 3 6 mph 1037.3mb 38f 25f
11:12 6 7 mph 1037.4mb 38f 25f
11:06 5 8 mph 1037.3mb 38f 25f
11:00 5 7 mph 1037.5mb 38f 26f
10:54 6 8 mph 1037.7mb 38f 26f
10:48 7 8 mph 1037.8mb 38f 25f
10:42 6 7 mph 1038.1mb 38f 25f
10:36 5 8 mph 1038.1mb 38f 26f
10:30 5 7 mph 1038.2mb 38f 26f
10:24 6 7 mph 1038.4mb 38f 28f
10:18 5 7 mph 1038.7mb 38f 28f
10:12 7 9 mph 1038.9mb 38f 27f
10:06 7 9 mph 1039mb 38f 27f
10:00 8 10 mph 1038.9mb 38f 26f
9:54 7 8 mph 1038.9mb 38f 26f
9:48 6 7 mph 1039.1mb 38f 26f
9:42 6 7 mph 1039.3mb 38f 25f
9:36 5 7 mph 1039.3mb 38f 26f
9:30 5 6 mph 1039.2mb 38f 26f
9:24 5 7 mph 1039.3mb 38f 25f
9:18 3 7 mph 1039.3mb 38f 25f
9:12 6 8 mph 1039.4mb 38f 25f
9:06 5 9 mph 1039.6mb 38f 25f
9:00 6 8 mph 1039.6mb 38f 25f
8:54 6 10 mph 1039.7mb 38f 25f
8:48 9 10 mph 1039.8mb 38f 26f
8:42 8 9 mph 1039.7mb 38f 26f
8:36 7 8 mph 1039.6mb 38f 26f
8:30 6 9 mph 1039.6mb 38f 25f
8:24 6 8 mph 1039.7mb 38f 25f
8:18 6 8 mph 1039.4mb 38f 24f
8:12 6 9 mph 1039.6mb 38f 23f
8:06 8 11 mph 1039.7mb 38f 23f
8:00 9 11 mph 1039.5mb 38f 24f
7:54 7 10 mph 1039.5mb 38f 24f
7:48 8 10 mph 1039.6mb 38f 24f
7:42 9 11 mph 1039.4mb 38f 23f
7:36 8 13 mph 1039.4mb 38f 23f
7:30 9 11 mph 1039.3mb 38f 23f
7:24 9 10 mph 1039.2mb 38f 22f
7:18 9 11 mph 1039.2mb 38f 22f
7:12 9 11 mph 1039.1mb 38f 23f
7:06 8 13 mph 1039.2mb 38f 23f
7:00 10 11 mph 1039.1mb 38f 23f
6:54 9 11 mph 1039.1mb 38f 23f
6:48 8 10 mph 1039.4mb 38f 23f
6:42 9 11 mph 1039.4mb 38f 23f
6:36 9 10 mph 1039.3mb 38f 24f
6:30 8 10 mph 1039.5mb 38f 23f
6:24 9 11 mph 1039.5mb 38f 24f
6:18 9 10 mph 1039.2mb 38f 24f
6:12 7 10 mph 1039.3mb 38f 24f
6:06 8 11 mph 1039.4mb 38f 24f
6:00 9 11 mph 1039.2mb 38f 24f
5:54 9 10 mph 1039.3mb 39f 24f
5:48 9 11 mph 1039.5mb 39f 24f
5:42 10 11 mph 1039.3mb 39f 24f
5:36 9 10 mph 1039.2mb 39f 24f
5:30 8 10 mph 1039.2mb 39f 24f
5:24 9 11 mph 1039.2mb 39f 25f
5:18 8 10 mph 1039.1mb 39f 25f
5:12 9 10 mph 1039mb 39f 25f
5:06 8 10 mph 1039.2mb 39f 25f
5:00 8 10 mph 1039.3mb 39f 25f
4:54 8 10 mph 1039.2mb 39f 25f
4:48 8 10 mph 1039.3mb 39f 25f
4:42 8 10 mph 1039.3mb 38f 25f
4:36 8 10 mph 1039.3mb 38f 26f
4:30 8 9 mph 1039.3mb 38f 26f
4:24 8 10 mph 1039.5mb 38f 26f
4:18 8 9 mph 1039.5mb 38f 26f
4:12 6 7 mph 1039.5mb 38f 26f
4:06 7 9 mph 1039.5mb 38f 26f
4:00 8 9 mph 1039.5mb 38f 26f
3:54 8 10 mph 1039.4mb 38f 26f
3:48 7 9 mph 1039.5mb 38f 26f
3:42 6 8 mph 1039.5mb 38f 26f
3:36 7 9 mph 1039.5mb 38f 27f
3:30 8 9 mph 1039.5mb 38f 27f
3:24 8 11 mph 1039.4mb 39f 27f
3:18 9 13 mph 1039.4mb 39f 27f
3:12 11 14 mph 1039.3mb 39f 28f
3:06 10 13 mph 1039.3mb 39f 28f
3:00 11 15 mph 1039.2mb 39f 28f
2:54 13 15 mph 1039.1mb 39f 28f
2:48 13 14 mph 1039.2mb 39f 28f
2:42 14 15 mph 1039.2mb 39f 28f
2:36 14 15 mph 1039.1mb 39f 28f
2:30 13 15 mph 1039.2mb 39f 28f
2:24 14 16 mph 1039.1mb 39f 28f
2:18 13 16 mph 1039.1mb 39f 28f
2:12 15 17 mph 1039.1mb 39f 28f
2:06 15 17 mph 1038.9mb 39f 28f
2:00 15 16 mph 1038.8mb 39f 28f
1:54 14 17 mph 1038.7mb 39f 28f
1:48 15 18 mph 1038.8mb 39f -
1:42 16 18 mph 1038.6mb 39f -
1:36 16 18 mph 1038.4mb 39f -
1:30 16 18 mph 1038.6mb 39f 29f
1:24 16 20 mph 1038.5mb 39f 29f
1:18 16 20 mph 1038.3mb 39f 29f
1:12 18 22 mph 1038.1mb 39f 29f
1:06 16 22 mph 1038.1mb 39f 29f
1:00 14 21 mph 1038.2mb 39f 29f
12:54 18 20 mph 1038.1mb 39f 29f
12:48 14 17 mph 1038mb 39f 29f
12:42 13 15 mph 1038.2mb 39f 29f
12:36 14 18 mph 1038.2mb 39f 30f
12:30 15 18 mph 1038.1mb 39f 30f
12:24 15 18 mph 1038mb 39f 30f
12:18 14 17 mph 1037.9mb 39f 30f
12:12 13 16 mph 1037.9mb 39f 31f
12:06 16 18 mph 1037.9mb 39f 31f
12:00 14 17 mph 1037.7mb 39f 31f
Sex 01/13 11:54 14 16 mph 1037.6mb 39f 31f
11:48 10 13 mph 1037.7mb 39f 31f
11:42 9 15 mph 1037.7mb 39f 31f
11:36 14 18 mph 1037.7mb 39f 32f
11:30 17 21 mph 1037.5mb 39f 32f
11:24 17 21 mph 1037.4mb 39f 32f
11:18 17 20 mph 1037.5mb 39f 32f
11:12 17 20 mph 1037.6mb 39f 32f
11:06 17 22 mph 1037.5mb 39f 32f
11:00 18 22 mph 1037.5mb 40f 32f
10:54 16 21 mph 1037.5mb 40f 32f
10:48 16 20 mph 1037.4mb 40f 32f
10:42 9 14 mph 1037.3mb 40f 32f
10:36 15 18 mph 1037.2mb 40f 33f
10:30 16 21 mph 1037.1mb 40f 33f
10:24 17 22 mph 1037mb 40f 33f
10:18 17 22 mph 1036.9mb 40f 33f
10:12 15 20 mph 1036.8mb 40f 33f
10:06 14 20 mph 1036.8mb 40f 34f
10:00 16 21 mph 1036.8mb 40f -
9:54 20 22 mph 1036.6mb 40f -
9:48 18 25 mph 1036.4mb 40f 34f
9:42 17 20 mph 1036.4mb 40f 34f
9:36 13 14 mph 1036.5mb 40f 33f
9:30 11 15 mph 1036.6mb 40f 34f
9:24 11 15 mph 1036.5mb 40f 34f
9:18 13 15 mph 1036.5mb 40f 34f
9:12 13 16 mph 1036.5mb 40f 34f
9:06 14 16 mph 1036.3mb 40f 34f
9:00 14 16 mph 1036.2mb 40f 34f
8:54 14 16 mph 1036mb 40f 34f
8:48 14 18 mph 1035.9mb 40f 34f
8:42 17 20 mph 1035.8mb 40f 34f
8:36 17 20 mph 1035.8mb 40f 35f
8:30 17 22 mph 1035.7mb 40f 35f
8:24 17 22 mph 1035.4mb 40f 35f
8:18 16 21 mph 1035.3mb 39f 35f
8:12 18 21 mph 1035.2mb 40f 35f
8:06 18 22 mph 1035.1mb 40f 35f
8:00 14 17 mph 1035.2mb 40f 35f
7:54 17 20 mph 1035.1mb 40f 35f
7:48 17 20 mph 1035mb 40f 35f
7:42 17 21 mph 1034.8mb 40f 36f
7:36 18 23 mph 1034.7mb 40f 36f
7:30 17 23 mph 1034.7mb 40f 36f
7:24 16 21 mph 1034.6mb 40f 36f
7:18 18 23 mph 1034.6mb 40f 36f
7:12 18 23 mph 1034.4mb 40f 36f
7:06 18 25 mph 1034.3mb 40f 37f
7:00 23 26 mph 1034.1mb 40f 37f
6:54 22 25 mph 1033.9mb 40f 37f
6:48 17 22 mph 1033.8mb 40f 37f
6:42 18 21 mph 1033.7mb 40f 37f
6:36 15 18 mph 1033.5mb 40f 37f
6:30 16 20 mph 1033.4mb 40f 37f
6:24 17 22 mph 1033.4mb 40f 37f
6:18 17 21 mph 1033.3mb 40f 37f
6:12 18 23 mph 1033mb 40f 37f
6:06 17 24 mph 1032.8mb 40f 37f
6:00 20 26 mph 1032.7mb 40f 38f
5:54 22 24 mph 1032.6mb 40f 38f
5:48 23 26 mph 1032.4mb 40f 38f
5:42 21 23 mph 1032.4mb 40f 38f
5:36 18 21 mph 1032.3mb 40f 38f
5:30 16 22 mph 1032.2mb 40f 38f
5:24 17 22 mph 1032.1mb 40f 38f
5:18 17 21 mph 1032mb 40f 39f
5:12 17 28 mph 1031.9mb 40f 39f
5:06 20 26 mph 1031.7mb 40f 39f
5:00 22 26 mph 1031.6mb 41f 39f
4:54 22 30 mph 1031.5mb 41f 39f
4:48 25 29 mph 1031.3mb 41f 39f
4:42 22 31 mph 1031.3mb 41f 40f
4:36 25 30 mph 1031mb 41f 40f
4:30 24 32 mph 1030.8mb 41f 40f
4:24 25 33 mph 1030.5mb 41f 40f
4:18 30 33 mph 1030.4mb 41f 40f
4:12 30 36 mph 1030.1mb 41f 40f
4:06 26 29 mph 1029.9mb 41f 41f
4:00 24 29 mph 1029.8mb 41f 41f
3:54 20 24 mph 1029.8mb 41f 41f
3:48 24 29 mph 1029.6mb 41f 41f
3:42 25 29 mph 1029.4mb 41f 41f
3:36 25 32 mph 1029.4mb 41f 42f
3:30 23 25 mph 1029.3mb 41f 42f
3:24 24 28 mph 1029.2mb 41f 42f
3:18 18 26 mph 1029.2mb 41f 42f
3:12 23 26 mph 1029.1mb 41f 42f
3:06 21 28 mph 1029mb 41f 42f
3:00 26 33 mph 1028.7mb 41f 43f
2:54 25 28 mph 1028.6mb 41f 43f
2:48 21 24 mph 1028.5mb 41f 42f
2:42 23 28 mph 1028.4mb 41f 42f
2:36 21 26 mph 1028.3mb 41f 42f
2:30 22 25 mph 1028.1mb 41f 42f
2:24 22 29 mph 1027.9mb 41f 42f
2:18 25 32 mph 1027.7mb 41f 43f
2:12 29 34 mph 1027.5mb 41f 43f
2:06 29 33 mph 1027.5mb 41f 43f
2:00 30 36 mph 1027.3mb 41f 43f
1:54 32 37 mph 1027mb 41f 43f
1:48 24 36 mph 1027.1mb 41f 42f
1:42 32 36 mph 1026.9mb 41f 43f
1:36 30 37 mph 1026.8mb 41f 43f
1:30 24 31 mph 1026.8mb 41f 43f
1:24 26 32 mph 1026.8mb 41f 43f
1:18 28 32 mph 1026.6mb 41f 43f
1:12 24 33 mph 1026.7mb 41f 43f
1:06 28 34 mph 1026.6mb 41f 43f
1:00 31 37 mph 1026.5mb 41f 43f
12:54 32 39 mph 1026.4mb 41f 43f
12:48 25 30 mph 1026.5mb 41f 44f
12:42 23 28 mph 1026.4mb 41f 43f
12:36 26 30 mph 1026.3mb 41f 43f
12:30 25 28 mph 1026.2mb 41f 43f
12:24 24 31 mph 1026mb 41f 44f
12:18 26 31 mph 1026mb 41f 43f
12:12 23 28 mph 1026mb 41f 43f
12:06 25 32 mph 1025.9mb 41f 43f
12:00 24 28 mph 1025.8mb 41f 43f
11:54 21 26 mph 1025.9mb 41f 43f
11:48 24 31 mph 1025.9mb 41f 43f
11:42 28 31 mph 1025.7mb 41f 43f
11:36 29 32 mph 1025.7mb 41f 43f
11:30 23 28 mph 1025.8mb 41f 43f
11:24 22 26 mph 1025.8mb 41f 43f
11:18 17 25 mph 1025.8mb 41f 43f
11:12 26 34 mph 1025.9mb 41f 43f
11:06 24 28 mph 1025.7mb 41f 43f
11:00 23 26 mph 1025.6mb 41f 43f
10:54 22 26 mph 1025.8mb 41f 43f
10:48 22 28 mph 1025.9mb 41f 43f
10:42 24 26 mph 1025.8mb 41f 43f
10:36 20 26 mph 1025.8mb 41f 43f
10:30 25 29 mph 1025.7mb 41f 43f
10:24 22 26 mph 1025.5mb 41f 43f
10:18 22 26 mph 1025.5mb 41f 43f
10:12 18 26 mph 1025.6mb 41f 43f
10:06 22 26 mph 1025.6mb 41f 42f
10:00 23 29 mph 1025.6mb 41f 42f
9:54 23 28 mph 1025.6mb 41f 43f
9:48 25 32 mph 1025.6mb 41f 43f
9:42 29 33 mph 1025.5mb 41f 43f
9:36 23 31 mph 1025.3mb 40f 43f
9:30 22 30 mph 1025.3mb 40f 43f
9:24 24 31 mph 1025.1mb 40f 43f
9:18 23 31 mph 1025mb 41f 43f
9:12 24 30 mph 1024.9mb 41f 43f
9:06 24 29 mph 1025mb 40f 43f
9:00 21 31 mph 1025mb 41f 43f
8:54 16 23 mph 1024.9mb 41f 43f
8:48 23 28 mph 1024.8mb 41f 43f
8:36 23 26 mph 1024.4mb 41f 43f
8:30 25 29 mph 1024.4mb 41f 43f
8:24 22 28 mph 1024.2mb 41f 43f
8:18 15 21 mph 1024.1mb 41f 44f
8:12 17 24 mph 1024.1mb 41f 44f
8:06 20 29 mph 1023.9mb 41f 44f
8:00 23 28 mph 1023.8mb 40f 44f
7:54 18 24 mph 1023.7mb 40f 44f
7:48 22 24 mph 1023.4mb 40f 44f
7:42 20 25 mph 1023.3mb 40f 44f
7:36 18 23 mph 1023.3mb 40f 44f
7:30 17 21 mph 1023.1mb 40f 44f
7:24 17 22 mph 1022.9mb 40f 45f
7:18 16 21 mph 1022.9mb 40f 45f
7:12 15 22 mph 1022.7mb 40f 45f
7:06 14 16 mph 1022.7mb 40f 45f
7:00 11 14 mph 1022.6mb 40f 45f
6:54 11 18 mph 1022.4mb 40f 45f
6:48 13 16 mph 1022.3mb 40f 46f
6:42 16 21 mph 1022mb 40f 46f
6:36 17 21 mph 1022mb 40f 46f
6:30 20 21 mph 1021.9mb 40f 46f
6:24 20 29 mph 1021.6mb 40f 46f
6:18 28 31 mph 1021.4mb 40f 47f
6:12 22 28 mph 1021.3mb 40f 47f
6:06 16 18 mph 1021.2mb 40f 47f
6:00 14 20 mph 1021mb 40f 47f
5:54 16 29 mph 1020.9mb 40f 48f
5:48 21 26 mph 1020.8mb 40f 49f
5:42 18 23 mph 1020.5mb 40f 48f
5:36 22 25 mph 1020.3mb 40f 49f
5:30 25 31 mph 1020mb 40f 50f
5:24 26 29 mph 1019.7mb 40f 50f
5:18 13 24 mph 1019.6mb 40f 50f
5:12 22 28 mph 1019.2mb 40f 52f